sensor_id;sensor_type;location;lat;lon;timestamp;pressure;altitude;pressure_sealevel;temperature;humidity
41513;BME280;27244;59.940;30.280;2023-05-13T00:00:18;102293.94;;;23.40;28.58
41513;BME280;27244;59.940;30.280;2023-05-13T00:02:48;102288.28;;;23.33;28.53
41513;BME280;27244;59.940;30.280;2023-05-13T00:05:18;102293.91;;;23.37;28.62
41513;BME280;27244;59.940;30.280;2023-05-13T00:07:45;102297.13;;;23.35;28.60
41513;BME280;27244;59.940;30.280;2023-05-13T00:10:12;102298.75;;;23.36;28.74
41513;BME280;27244;59.940;30.280;2023-05-13T00:12:42;102305.16;;;23.37;28.47
41513;BME280;27244;59.940;30.280;2023-05-13T00:15:09;102299.16;;;23.35;28.50
41513;BME280;27244;59.940;30.280;2023-05-13T00:17:36;102295.53;;;23.34;28.48
41513;BME280;27244;59.940;30.280;2023-05-13T00:20:04;102300.75;;;23.36;28.73
41513;BME280;27244;59.940;30.280;2023-05-13T00:22:32;102304.38;;;23.36;29.02
41513;BME280;27244;59.940;30.280;2023-05-13T00:24:59;102305.97;;;23.37;28.90
41513;BME280;27244;59.940;30.280;2023-05-13T00:27:26;102308.41;;;23.35;29.05
41513;BME280;27244;59.940;30.280;2023-05-13T00:29:54;102305.97;;;23.37;29.01
41513;BME280;27244;59.940;30.280;2023-05-13T00:32:21;102310.03;;;23.36;28.98
41513;BME280;27244;59.940;30.280;2023-05-13T00:34:53;102302.34;;;23.37;29.13
41513;BME280;27244;59.940;30.280;2023-05-13T00:37:20;102315.22;;;23.38;29.14
41513;BME280;27244;59.940;30.280;2023-05-13T00:39:48;102312.03;;;23.36;29.31
41513;BME280;27244;59.940;30.280;2023-05-13T00:42:15;102314.44;;;23.37;29.30
41513;BME280;27244;59.940;30.280;2023-05-13T00:44:42;102314.44;;;23.37;29.40
41513;BME280;27244;59.940;30.280;2023-05-13T00:47:10;102307.59;;;23.38;29.38
41513;BME280;27244;59.940;30.280;2023-05-13T00:49:37;102312.84;;;23.36;29.36
41513;BME280;27244;59.940;30.280;2023-05-13T00:52:05;102307.97;;;23.37;29.38
41513;BME280;27244;59.940;30.280;2023-05-13T00:54:32;102311.59;;;23.37;29.50
41513;BME280;27244;59.940;30.280;2023-05-13T00:56:59;102310.81;;;23.37;29.50
41513;BME280;27244;59.940;30.280;2023-05-13T00:59:27;102318.03;;;23.38;29.40
41513;BME280;27244;59.940;30.280;2023-05-13T01:02:02;102307.63;;;23.42;29.48
41513;BME280;27244;59.940;30.280;2023-05-13T01:04:36;102304.78;;;23.42;29.40
41513;BME280;27244;59.940;30.280;2023-05-13T01:07:11;102304.38;;;23.40;29.52
41513;BME280;27244;59.940;30.280;2023-05-13T01:09:50;102306.78;;;23.38;29.62
41513;BME280;27244;59.940;30.280;2023-05-13T01:12:25;102312.44;;;23.41;29.57
41513;BME280;27244;59.940;30.280;2023-05-13T01:15:00;102314.41;;;23.41;29.53
41513;BME280;27244;59.940;30.280;2023-05-13T01:17:31;102318.84;;;23.38;29.55
41513;BME280;27244;59.940;30.280;2023-05-13T01:20:03;102316.84;;;23.39;29.53
41513;BME280;27244;59.940;30.280;2023-05-13T01:22:32;102316.44;;;23.37;29.73
41513;BME280;27244;59.940;30.280;2023-05-13T01:24:59;102319.25;;;23.33;29.74
41513;BME280;27244;59.940;30.280;2023-05-13T01:27:26;102322.47;;;23.35;29.61
41513;BME280;27244;59.940;30.280;2023-05-13T01:29:54;102319.66;;;23.35;29.83
41513;BME280;27244;59.940;30.280;2023-05-13T01:32:26;102316.84;;;23.35;29.86
41513;BME280;27244;59.940;30.280;2023-05-13T01:34:54;102328.13;;;23.35;29.69
41513;BME280;27244;59.940;30.280;2023-05-13T01:37:21;102330.94;;;23.35;29.71
41513;BME280;27244;59.940;30.280;2023-05-13T01:39:50;102330.94;;;23.35;29.62
41513;BME280;27244;59.940;30.280;2023-05-13T01:42:17;102331.75;;;23.36;29.56
41513;BME280;27244;59.940;30.280;2023-05-13T01:44:47;102325.28;;;23.39;29.78
41513;BME280;27244;59.940;30.280;2023-05-13T01:47:14;102331.31;;;23.34;29.75
41513;BME280;27244;59.940;30.280;2023-05-13T01:49:41;102327.31;;;23.31;29.63
41513;BME280;27244;59.940;30.280;2023-05-13T01:52:08;102347.03;;;23.35;29.72
41513;BME280;27244;59.940;30.280;2023-05-13T01:54:35;102345.00;;;23.35;29.81
41513;BME280;27244;59.940;30.280;2023-05-13T01:57:08;102345.81;;;23.36;29.61
41513;BME280;27244;59.940;30.280;2023-05-13T01:59:35;102346.63;;;23.36;29.72
41513;BME280;27244;59.940;30.280;2023-05-13T02:02:02;102343.00;;;23.36;29.79
41513;BME280;27244;59.940;30.280;2023-05-13T02:04:30;102345.81;;;23.36;29.71
41513;BME280;27244;59.940;30.280;2023-05-13T02:06:57;102343.00;;;23.36;29.75
41513;BME280;27244;59.940;30.280;2023-05-13T02:09:27;102342.19;;;23.35;29.76
41513;BME280;27244;59.940;30.280;2023-05-13T02:11:54;102350.66;;;23.35;29.75
41513;BME280;27244;59.940;30.280;2023-05-13T02:14:22;102344.59;;;23.37;29.82
41513;BME280;27244;59.940;30.280;2023-05-13T02:16:49;102345.00;;;23.35;29.57
41513;BME280;27244;59.940;30.280;2023-05-13T02:19:16;102347.03;;;23.35;29.74
41513;BME280;27244;59.940;30.280;2023-05-13T02:21:44;102349.84;;;23.35;29.79
41513;BME280;27244;59.940;30.280;2023-05-13T02:24:11;102351.03;;;23.34;29.93
41513;BME280;27244;59.940;30.280;2023-05-13T02:26:38;102363.09;;;23.34;29.80
41513;BME280;27244;59.940;30.280;2023-05-13T02:29:06;102351.03;;;23.34;29.78
41513;BME280;27244;59.940;30.280;2023-05-13T02:31:34;102349.03;;;23.34;29.82
41513;BME280;27244;59.940;30.280;2023-05-13T02:34:01;102357.47;;;23.34;29.94
41513;BME280;27244;59.940;30.280;2023-05-13T02:36:29;102356.28;;;23.35;29.93
41513;BME280;27244;59.940;30.280;2023-05-13T02:38:56;102355.09;;;23.33;29.74
41513;BME280;27244;59.940;30.280;2023-05-13T02:41:23;102359.09;;;23.35;29.99
41513;BME280;27244;59.940;30.280;2023-05-13T02:43:50;102350.66;;;23.35;29.86
41513;BME280;27244;59.940;30.280;2023-05-13T02:46:17;102351.84;;;23.34;29.96
41513;BME280;27244;59.940;30.280;2023-05-13T02:48:45;102357.09;;;23.36;30.43
41513;BME280;27244;59.940;30.280;2023-05-13T02:51:12;102361.09;;;23.35;30.07
41513;BME280;27244;59.940;30.280;2023-05-13T02:53:40;102361.50;;;23.33;29.88
41513;BME280;27244;59.940;30.280;2023-05-13T02:56:08;102369.53;;;23.35;29.79
41513;BME280;27244;59.940;30.280;2023-05-13T02:58:35;102366.34;;;23.33;30.01
41513;BME280;27244;59.940;30.280;2023-05-13T03:01:02;102363.09;;;23.31;30.01
41513;BME280;27244;59.940;30.280;2023-05-13T03:03:29;102364.72;;;23.32;30.19
41513;BME280;27244;59.940;30.280;2023-05-13T03:05:57;102367.13;;;23.33;30.12
41513;BME280;27244;59.940;30.280;2023-05-13T03:08:24;102373.19;;;23.32;30.15
41513;BME280;27244;59.940;30.280;2023-05-13T03:10:52;102380.41;;;23.33;30.08
41513;BME280;27244;59.940;30.280;2023-05-13T03:13:20;102375.56;;;23.30;30.15
41513;BME280;27244;59.940;30.280;2023-05-13T03:15:46;102381.19;;;23.30;30.08
41513;BME280;27244;59.940;30.280;2023-05-13T03:18:13;102386.06;;;23.29;30.12
41513;BME280;27244;59.940;30.280;2023-05-13T03:20:40;102370.75;;;23.30;30.04
41513;BME280;27244;59.940;30.280;2023-05-13T03:23:09;102373.19;;;23.32;30.12
41513;BME280;27244;59.940;30.280;2023-05-13T03:25:36;102378.38;;;23.30;30.07
41513;BME280;27244;59.940;30.280;2023-05-13T03:28:04;102380.00;;;23.31;30.11
41513;BME280;27244;59.940;30.280;2023-05-13T03:30:36;102380.00;;;23.31;30.15
41513;BME280;27244;59.940;30.280;2023-05-13T03:33:11;102389.25;;;23.31;30.21
41513;BME280;27244;59.940;30.280;2023-05-13T03:35:38;102386.84;;;23.30;30.28
41513;BME280;27244;59.940;30.280;2023-05-13T03:38:06;102386.06;;;23.29;30.08
41513;BME280;27244;59.940;30.280;2023-05-13T03:40:38;102386.84;;;23.30;30.08
41513;BME280;27244;59.940;30.280;2023-05-13T03:43:05;102390.88;;;23.29;30.08
41513;BME280;27244;59.940;30.280;2023-05-13T03:45:34;102390.88;;;23.29;30.07
41513;BME280;27244;59.940;30.280;2023-05-13T03:48:06;102390.88;;;23.29;29.83
41513;BME280;27244;59.940;30.280;2023-05-13T03:50:35;102390.06;;;23.28;29.90
41513;BME280;27244;59.940;30.280;2023-05-13T03:53:03;102382.00;;;23.27;29.76
41513;BME280;27244;59.940;30.280;2023-05-13T03:55:31;102384.44;;;23.28;29.88
41513;BME280;27244;59.940;30.280;2023-05-13T03:58:11;102384.00;;;23.37;29.75
41513;BME280;27244;59.940;30.280;2023-05-13T04:00:40;102388.06;;;23.29;29.80
41513;BME280;27244;59.940;30.280;2023-05-13T04:03:07;102384.03;;;23.30;29.64
41513;BME280;27244;59.940;30.280;2023-05-13T04:05:34;102380.81;;;23.28;29.95
41513;BME280;27244;59.940;30.280;2023-05-13T04:08:01;102385.63;;;23.27;29.77
41513;BME280;27244;59.940;30.280;2023-05-13T04:10:28;102386.06;;;23.26;29.76
41513;BME280;27244;59.940;30.280;2023-05-13T04:12:56;102395.28;;;23.26;29.81
41513;BME280;27244;59.940;30.280;2023-05-13T04:15:24;102382.00;;;23.23;29.67
41513;BME280;27244;59.940;30.280;2023-05-13T04:17:51;102387.25;;;23.25;29.64
41513;BME280;27244;59.940;30.280;2023-05-13T04:20:18;102371.97;;;23.19;29.95
41513;BME280;27244;59.940;30.280;2023-05-13T04:22:45;102384.81;;;23.20;29.58
41513;BME280;27244;59.940;30.280;2023-05-13T04:25:13;102396.09;;;23.23;29.59
41513;BME280;27244;59.940;30.280;2023-05-13T04:27:42;102396.50;;;23.22;29.60
41513;BME280;27244;59.940;30.280;2023-05-13T04:30:18;102393.28;;;23.20;29.46
41513;BME280;27244;59.940;30.280;2023-05-13T04:32:47;102395.69;;;23.25;29.69
41513;BME280;27244;59.940;30.280;2023-05-13T04:35:15;102394.09;;;23.24;29.84
41513;BME280;27244;59.940;30.280;2023-05-13T04:37:45;102391.28;;;23.24;29.88
41513;BME280;27244;59.940;30.280;2023-05-13T04:40:14;102396.50;;;23.25;29.82
41513;BME280;27244;59.940;30.280;2023-05-13T04:42:42;102402.13;;;23.25;29.75
41513;BME280;27244;59.940;30.280;2023-05-13T04:45:09;102413.78;;;23.24;29.83
41513;BME280;27244;59.940;30.280;2023-05-13T04:47:36;102411.78;;;23.24;29.83
41513;BME280;27244;59.940;30.280;2023-05-13T04:50:06;102413.41;;;23.22;29.75
41513;BME280;27244;59.940;30.280;2023-05-13T04:52:36;102427.06;;;23.27;29.70
41513;BME280;27244;59.940;30.280;2023-05-13T04:55:06;102418.22;;;23.25;29.77
41513;BME280;27244;59.940;30.280;2023-05-13T04:57:33;102412.59;;;23.21;29.74
41513;BME280;27244;59.940;30.280;2023-05-13T05:00:00;102411.41;;;23.22;29.66
41513;BME280;27244;59.940;30.280;2023-05-13T05:02:29;102412.19;;;23.23;29.73
41513;BME280;27244;59.940;30.280;2023-05-13T05:04:56;102419.03;;;23.22;29.66
41513;BME280;27244;59.940;30.280;2023-05-13T05:07:25;102420.63;;;23.23;29.74
41513;BME280;27244;59.940;30.280;2023-05-13T05:09:52;102414.22;;;23.22;29.72
41513;BME280;27244;59.940;30.280;2023-05-13T05:12:19;102415.41;;;23.21;29.80
41513;BME280;27244;59.940;30.280;2023-05-13T05:14:45;102413.78;;;23.17;29.85
41513;BME280;27244;59.940;30.280;2023-05-13T05:17:12;102419.84;;;23.22;29.90
41513;BME280;27244;59.940;30.280;2023-05-13T05:19:39;102428.28;;;23.22;30.00
41513;BME280;27244;59.940;30.280;2023-05-13T05:22:07;102425.06;;;23.24;29.96
41513;BME280;27244;59.940;30.280;2023-05-13T05:24:35;102436.75;;;23.26;30.00
41513;BME280;27244;59.940;30.280;2023-05-13T05:27:03;102437.50;;;23.23;30.03
41513;BME280;27244;59.940;30.280;2023-05-13T05:29:31;102439.94;;;23.24;29.83
41513;BME280;27244;59.940;30.280;2023-05-13T05:31:59;102443.56;;;23.25;29.96
41513;BME280;27244;59.940;30.280;2023-05-13T05:34:26;102447.56;;;23.24;29.91
41513;BME280;27244;59.940;30.280;2023-05-13T05:36:53;102445.97;;;23.23;29.95
41513;BME280;27244;59.940;30.280;2023-05-13T05:39:20;102445.19;;;23.22;30.22
41513;BME280;27244;59.940;30.280;2023-05-13T05:41:49;102454.03;;;23.24;30.03
41513;BME280;27244;59.940;30.280;2023-05-13T05:44:16;102454.41;;;23.23;30.19
41513;BME280;27244;59.940;30.280;2023-05-13T05:46:45;102446.78;;;23.23;30.21
41513;BME280;27244;59.940;30.280;2023-05-13T05:49:12;102443.94;;;23.23;30.38
41513;BME280;27244;59.940;30.280;2023-05-13T05:51:42;102457.22;;;23.26;30.39
41513;BME280;27244;59.940;30.280;2023-05-13T05:54:09;102452.81;;;23.25;30.35
41513;BME280;27244;59.940;30.280;2023-05-13T05:56:37;102455.63;;;23.25;30.34
41513;BME280;27244;59.940;30.280;2023-05-13T05:59:05;102449.19;;;23.25;30.24
41513;BME280;27244;59.940;30.280;2023-05-13T06:01:32;102450.41;;;23.24;30.37
41513;BME280;27244;59.940;30.280;2023-05-13T06:04:01;102441.56;;;23.22;30.23
41513;BME280;27244;59.940;30.280;2023-05-13T06:06:29;102434.31;;;23.21;30.30
41513;BME280;27244;59.940;30.280;2023-05-13T06:08:58;102445.97;;;23.23;30.28
41513;BME280;27244;59.940;30.280;2023-05-13T06:11:26;102442.38;;;23.22;30.41
41513;BME280;27244;59.940;30.280;2023-05-13T06:13:53;102445.19;;;23.22;30.39
41513;BME280;27244;59.940;30.280;2023-05-13T06:16:25;102447.56;;;23.24;30.50
41513;BME280;27244;59.940;30.280;2023-05-13T06:18:52;102444.38;;;23.22;30.50
41513;BME280;27244;59.940;30.280;2023-05-13T06:21:19;102453.63;;;23.22;30.42
41513;BME280;27244;59.940;30.280;2023-05-13T06:23:48;102442.75;;;23.21;30.51
41513;BME280;27244;59.940;30.280;2023-05-13T06:26:14;102445.56;;;23.21;30.67
41513;BME280;27244;59.940;30.280;2023-05-13T06:28:41;102445.97;;;23.23;30.61
41513;BME280;27244;59.940;30.280;2023-05-13T06:31:08;102450.00;;;23.18;30.64
41513;BME280;27244;59.940;30.280;2023-05-13T06:33:37;102456.03;;;23.24;30.51
41513;BME280;27244;59.940;30.280;2023-05-13T06:36:04;102458.03;;;23.23;30.98
41513;BME280;27244;59.940;30.280;2023-05-13T06:38:32;102458.03;;;23.23;31.21
41513;BME280;27244;59.940;30.280;2023-05-13T06:41:00;102454.41;;;23.23;31.09
41513;BME280;27244;59.940;30.280;2023-05-13T06:43:31;102464.47;;;23.24;31.18
41513;BME280;27244;59.940;30.280;2023-05-13T06:46:05;102456.03;;;23.20;30.88
41513;BME280;27244;59.940;30.280;2023-05-13T06:48:32;102467.28;;;23.24;30.58
41513;BME280;27244;59.940;30.280;2023-05-13T06:51:00;102466.09;;;23.25;30.48
41513;BME280;27244;59.940;30.280;2023-05-13T06:53:31;102463.28;;;23.25;30.42
41513;BME280;27244;59.940;30.280;2023-05-13T06:55:58;102469.28;;;23.23;30.43
41513;BME280;27244;59.940;30.280;2023-05-13T06:58:25;102458.03;;;23.20;30.49
41513;BME280;27244;59.940;30.280;2023-05-13T07:00:54;102465.66;;;23.23;30.41
41513;BME280;27244;59.940;30.280;2023-05-13T07:03:20;102467.28;;;23.24;30.34
41513;BME280;27244;59.940;30.280;2023-05-13T07:05:48;102471.31;;;23.23;30.28
41513;BME280;27244;59.940;30.280;2023-05-13T07:08:16;102468.09;;;23.24;30.33
41513;BME280;27244;59.940;30.280;2023-05-13T07:10:43;102465.66;;;23.23;30.45
41513;BME280;27244;59.940;30.280;2023-05-13T07:13:10;102473.72;;;23.21;30.45
41513;BME280;27244;59.940;30.280;2023-05-13T07:15:39;102478.16;;;23.22;30.60
41513;BME280;27244;59.940;30.280;2023-05-13T07:18:06;102480.97;;;23.22;30.50
41513;BME280;27244;59.940;30.280;2023-05-13T07:20:33;102483.78;;;23.22;30.65
41513;BME280;27244;59.940;30.280;2023-05-13T07:23:00;102482.56;;;23.23;30.60
41513;BME280;27244;59.940;30.280;2023-05-13T07:25:28;102486.59;;;23.22;30.62
41513;BME280;27244;59.940;30.280;2023-05-13T07:27:55;102476.53;;;23.17;30.53
41513;BME280;27244;59.940;30.280;2023-05-13T07:30:22;102481.34;;;23.20;30.52
41513;BME280;27244;59.940;30.280;2023-05-13T07:32:49;102482.16;;;23.21;30.69
41513;BME280;27244;59.940;30.280;2023-05-13T07:35:16;102485.78;;;23.18;30.37
41513;BME280;27244;59.940;30.280;2023-05-13T07:37:43;102491.81;;;23.20;30.74
41513;BME280;27244;59.940;30.280;2023-05-13T07:40:11;102493.44;;;23.21;30.74
41513;BME280;27244;59.940;30.280;2023-05-13T07:42:39;102497.06;;;23.21;30.61
41513;BME280;27244;59.940;30.280;2023-05-13T07:45:07;102496.63;;;23.19;30.82
41513;BME280;27244;59.940;30.280;2023-05-13T07:47:34;102497.06;;;23.21;30.83
41513;BME280;27244;59.940;30.280;2023-05-13T07:50:01;102489.00;;;23.20;30.63
41513;BME280;27244;59.940;30.280;2023-05-13T07:52:29;102487.41;;;23.22;30.41
41513;BME280;27244;59.940;30.280;2023-05-13T07:54:55;102485.38;;;23.23;30.41
41513;BME280;27244;59.940;30.280;2023-05-13T07:57:23;102479.72;;;23.16;30.11
41513;BME280;27244;59.940;30.280;2023-05-13T07:59:54;102497.88;;;23.29;30.10
41513;BME280;27244;59.940;30.280;2023-05-13T08:02:21;102497.44;;;23.27;30.03
41513;BME280;27244;59.940;30.280;2023-05-13T08:04:48;102496.66;;;23.26;30.15
41513;BME280;27244;59.940;30.280;2023-05-13T08:07:15;102499.88;;;23.25;30.49
41513;BME280;27244;59.940;30.280;2023-05-13T08:09:42;102505.50;;;23.25;30.47
41513;BME280;27244;59.940;30.280;2023-05-13T08:12:09;102501.88;;;23.24;30.68
41513;BME280;27244;59.940;30.280;2023-05-13T08:14:36;102501.06;;;23.24;30.61
41513;BME280;27244;59.940;30.280;2023-05-13T08:17:05;102508.72;;;23.27;30.26
41513;BME280;27244;59.940;30.280;2023-05-13T08:19:32;102497.88;;;23.22;30.19
41513;BME280;27244;59.940;30.280;2023-05-13T08:21:59;102500.69;;;23.22;30.45
41513;BME280;27244;59.940;30.280;2023-05-13T08:24:26;102504.69;;;23.24;30.55
41513;BME280;27244;59.940;30.280;2023-05-13T08:26:53;102504.31;;;23.22;30.69
41513;BME280;27244;59.940;30.280;2023-05-13T08:29:20;102503.09;;;23.23;30.60
41513;BME280;27244;59.940;30.280;2023-05-13T08:31:47;102511.53;;;23.23;30.77
41513;BME280;27244;59.940;30.280;2023-05-13T08:34:15;102515.56;;;23.26;31.13
41513;BME280;27244;59.940;30.280;2023-05-13T08:36:42;102520.41;;;23.25;31.28
41513;BME280;27244;59.940;30.280;2023-05-13T08:39:09;102515.97;;;23.24;31.28
41513;BME280;27244;59.940;30.280;2023-05-13T08:41:36;102517.97;;;23.27;31.32
41513;BME280;27244;59.940;30.280;2023-05-13T08:44:04;102513.53;;;23.26;31.27
41513;BME280;27244;59.940;30.280;2023-05-13T08:46:32;102512.34;;;23.27;31.43
41513;BME280;27244;59.940;30.280;2023-05-13T08:49:02;102511.97;;;23.29;31.42
41513;BME280;27244;59.940;30.280;2023-05-13T08:51:31;102511.97;;;23.29;31.46
41513;BME280;27244;59.940;30.280;2023-05-13T08:53:59;102515.59;;;23.29;31.42
41513;BME280;27244;59.940;30.280;2023-05-13T08:56:26;102508.72;;;23.27;31.76
41513;BME280;27244;59.940;30.280;2023-05-13T08:58:54;102511.97;;;23.29;31.44
41513;BME280;27244;59.940;30.280;2023-05-13T09:01:24;102516.78;;;23.32;31.45
41513;BME280;27244;59.940;30.280;2023-05-13T09:03:56;102509.53;;;23.31;31.40
41513;BME280;27244;59.940;30.280;2023-05-13T09:06:24;102509.53;;;23.31;31.47
41513;BME280;27244;59.940;30.280;2023-05-13T09:08:52;102512.78;;;23.33;31.21
41513;BME280;27244;59.940;30.280;2023-05-13T09:11:20;102515.97;;;23.31;31.54
41513;BME280;27244;59.940;30.280;2023-05-13T09:13:55;102516.78;;;23.39;31.46
41513;BME280;27244;59.940;30.280;2023-05-13T09:16:23;102517.97;;;23.31;31.61
41513;BME280;27244;59.940;30.280;2023-05-13T09:18:56;102518.41;;;23.36;31.30
41513;BME280;27244;59.940;30.280;2023-05-13T09:21:24;102517.97;;;23.31;31.44
41513;BME280;27244;59.940;30.280;2023-05-13T09:24:03;102519.22;;;23.40;31.39
41513;BME280;27244;59.940;30.280;2023-05-13T09:26:30;102515.16;;;23.34;31.43
41513;BME280;27244;59.940;30.280;2023-05-13T09:29:17;102514.41;;;23.44;31.17
41513;BME280;27244;59.940;30.280;2023-05-13T09:31:46;102511.16;;;23.32;31.47
41513;BME280;27244;59.940;30.280;2023-05-13T09:34:14;102517.19;;;23.34;31.40
41513;BME280;27244;59.940;30.280;2023-05-13T09:36:57;102519.19;;;23.37;31.20
41513;BME280;27244;59.940;30.280;2023-05-13T09:39:26;102506.72;;;23.31;31.37
41513;BME280;27244;59.940;30.280;2023-05-13T09:41:53;102508.72;;;23.30;31.13
41513;BME280;27244;59.940;30.280;2023-05-13T09:44:21;102520.00;;;23.34;31.21
41513;BME280;27244;59.940;30.280;2023-05-13T09:46:50;102513.56;;;23.33;31.09
41513;BME280;27244;59.940;30.280;2023-05-13T09:49:17;102515.16;;;23.31;31.02
41513;BME280;27244;59.940;30.280;2023-05-13T09:51:44;102513.53;;;23.30;30.98
41513;BME280;27244;59.940;30.280;2023-05-13T09:54:11;102507.13;;;23.29;31.09
41513;BME280;27244;59.940;30.280;2023-05-13T09:56:39;102507.91;;;23.33;30.98
41513;BME280;27244;59.940;30.280;2023-05-13T09:59:06;102512.34;;;23.31;30.91
41513;BME280;27244;59.940;30.280;2023-05-13T10:01:34;102509.94;;;23.29;30.87
41513;BME280;27244;59.940;30.280;2023-05-13T10:04:02;102517.97;;;23.31;30.99
41513;BME280;27244;59.940;30.280;2023-05-13T10:06:31;102506.72;;;23.31;30.93
41513;BME280;27244;59.940;30.280;2023-05-13T10:09:00;102518.41;;;23.33;30.89
41513;BME280;27244;59.940;30.280;2023-05-13T10:11:28;102516.34;;;23.30;30.80
41513;BME280;27244;59.940;30.280;2023-05-13T10:14:00;102510.75;;;23.33;30.86
41513;BME280;27244;59.940;30.280;2023-05-13T10:16:27;102509.94;;;23.29;30.93
41513;BME280;27244;59.940;30.280;2023-05-13T10:18:58;102513.16;;;23.31;30.78
41513;BME280;27244;59.940;30.280;2023-05-13T10:21:25;102513.97;;;23.32;30.76
41513;BME280;27244;59.940;30.280;2023-05-13T10:23:53;102515.97;;;23.28;30.93
41513;BME280;27244;59.940;30.280;2023-05-13T10:26:26;102520.41;;;23.36;30.89
41513;BME280;27244;59.940;30.280;2023-05-13T10:28:54;102525.63;;;23.30;30.91
41513;BME280;27244;59.940;30.280;2023-05-13T10:31:23;102515.16;;;23.31;30.69
41513;BME280;27244;59.940;30.280;2023-05-13T10:33:51;102517.59;;;23.29;30.78
41513;BME280;27244;59.940;30.280;2023-05-13T10:36:42;102524.44;;;23.38;30.69
41513;BME280;27244;59.940;30.280;2023-05-13T10:39:34;102516.78;;;23.39;30.86
41513;BME280;27244;59.940;30.280;2023-05-13T10:42:32;102516.03;;;23.42;30.70
41513;BME280;27244;59.940;30.280;2023-05-13T10:45:03;102514.34;;;23.30;30.74
41513;BME280;27244;59.940;30.280;2023-05-13T10:47:32;102513.16;;;23.31;30.76
41513;BME280;27244;59.940;30.280;2023-05-13T10:50:04;102512.34;;;23.31;30.89
41513;BME280;27244;59.940;30.280;2023-05-13T10:52:44;102515.16;;;23.34;30.75
41513;BME280;27244;59.940;30.280;2023-05-13T10:55:16;102507.91;;;23.30;31.19
41513;BME280;27244;59.940;30.280;2023-05-13T11:00:29;102499.91;;;23.35;31.91
41513;BME280;27244;59.940;30.280;2023-05-13T11:03:07;102505.91;;;23.37;31.92
41513;BME280;27244;59.940;30.280;2023-05-13T11:05:37;102507.53;;;23.35;31.62
41513;BME280;27244;59.940;30.280;2023-05-13T11:08:04;102504.72;;;23.28;31.92
41513;BME280;27244;59.940;30.280;2023-05-13T11:10:32;102507.13;;;23.33;31.69
41513;BME280;27244;59.940;30.280;2023-05-13T11:13:07;102505.53;;;23.39;31.58
41513;BME280;27244;59.940;30.280;2023-05-13T11:15:43;102511.97;;;23.39;31.39
41513;BME280;27244;59.940;30.280;2023-05-13T11:18:12;102511.53;;;23.34;31.88
41513;BME280;27244;59.940;30.280;2023-05-13T11:20:39;102512.78;;;23.33;31.89
41513;BME280;27244;59.940;30.280;2023-05-13T11:23:06;102511.53;;;23.34;32.28
41513;BME280;27244;59.940;30.280;2023-05-13T11:25:33;102513.16;;;23.35;32.34
41513;BME280;27244;59.940;30.280;2023-05-13T11:28:00;102513.97;;;23.35;32.19
41513;BME280;27244;59.940;30.280;2023-05-13T11:30:29;102516.38;;;23.37;32.24
41513;BME280;27244;59.940;30.280;2023-05-13T11:32:56;102511.97;;;23.36;32.10
41513;BME280;27244;59.940;30.280;2023-05-13T11:35:26;102505.53;;;23.35;32.02
41513;BME280;27244;59.940;30.280;2023-05-13T11:37:53;102509.97;;;23.36;32.06
41513;BME280;27244;59.940;30.280;2023-05-13T11:40:21;102513.97;;;23.39;32.00
41513;BME280;27244;59.940;30.280;2023-05-13T11:42:48;102511.16;;;23.35;32.07
41513;BME280;27244;59.940;30.280;2023-05-13T11:45:15;102515.19;;;23.38;32.03
41513;BME280;27244;59.940;30.280;2023-05-13T11:47:43;102508.72;;;23.37;31.99
41513;BME280;27244;59.940;30.280;2023-05-13T11:50:17;102515.22;;;23.45;31.81
41513;BME280;27244;59.940;30.280;2023-05-13T11:52:49;102514.41;;;23.44;31.90
41513;BME280;27244;59.940;30.280;2023-05-13T11:55:24;102506.38;;;23.43;31.81
41513;BME280;27244;59.940;30.280;2023-05-13T11:57:51;102514.38;;;23.41;31.85
41513;BME280;27244;59.940;30.280;2023-05-13T12:00:23;102512.41;;;23.41;31.76
41513;BME280;27244;59.940;30.280;2023-05-13T12:02:50;102518.03;;;23.41;31.82
41513;BME280;27244;59.940;30.280;2023-05-13T12:05:17;102509.53;;;23.38;31.65
41513;BME280;27244;59.940;30.280;2023-05-13T12:07:45;102518.84;;;23.42;31.89
41513;BME280;27244;59.940;30.280;2023-05-13T12:10:13;102511.97;;;23.39;31.72
41513;BME280;27244;59.940;30.280;2023-05-13T12:12:41;102516.84;;;23.42;31.83
41513;BME280;27244;59.940;30.280;2023-05-13T12:15:10;102516.84;;;23.42;31.92
41513;BME280;27244;59.940;30.280;2023-05-13T12:17:38;102511.56;;;23.41;31.95
41513;BME280;27244;59.940;30.280;2023-05-13T12:20:07;102513.63;;;23.44;32.03
41513;BME280;27244;59.940;30.280;2023-05-13T12:22:35;102509.19;;;23.43;31.95
41513;BME280;27244;59.940;30.280;2023-05-13T12:25:38;102510.41;;;23.52;31.87
41513;BME280;27244;59.940;30.280;2023-05-13T12:28:06;102497.47;;;23.41;32.05
41513;BME280;27244;59.940;30.280;2023-05-13T12:30:33;102502.38;;;23.44;32.13
41513;BME280;27244;59.940;30.280;2023-05-13T12:33:00;102497.50;;;23.44;32.10
41513;BME280;27244;59.940;30.280;2023-05-13T12:35:29;102502.38;;;23.44;32.03
41513;BME280;27244;59.940;30.280;2023-05-13T12:38:01;102501.13;;;23.48;32.06
41513;BME280;27244;59.940;30.280;2023-05-13T12:40:29;102500.28;;;23.41;32.23
41513;BME280;27244;59.940;30.280;2023-05-13T12:42:58;102503.94;;;23.45;32.28
41513;BME280;27244;59.940;30.280;2023-05-13T12:45:27;102501.56;;;23.47;32.32
41513;BME280;27244;59.940;30.280;2023-05-13T12:47:55;102505.19;;;23.44;32.09
41513;BME280;27244;59.940;30.280;2023-05-13T12:50:22;102507.56;;;23.45;32.30